Time;durP1;ratioP1;P1;durP2;ratioP2;P2;SDS_P1;SDS_P2;PMS_P1;PMS_P2;Temp;Humidity;BMP_temperature;BMP_pressure;BME280_temperature;BME280_humidity;BME280_pressure;Samples;Min_cycle;Max_cycle;Signal;HPM_P1;HPM_P2
2022/10/20 00:01:36;;;;;;;18.25;9.73;;;13.20;99.90;;;;;;8371975;28;20070;-81
2022/10/20 00:05:36;;;;;;;18.33;10.73;;;13.00;99.90;;;;;;8363792;28;20032;-80
2022/10/20 00:09:37;;;;;;;17.08;10.82;;;12.90;99.90;;;;;;8354909;28;20021;-81
2022/10/20 00:13:39;;;;;;;19.13;12.00;;;12.90;99.90;;;;;;8372899;28;20021;-80
2022/10/20 00:17:39;;;;;;;17.60;12.43;;;12.90;99.90;;;;;;8354737;28;20083;-81
2022/10/20 00:21:40;;;;;;;20.30;12.15;;;12.80;99.90;;;;;;8337601;28;20024;-81
2022/10/20 00:25:40;;;;;;;22.05;12.48;;;12.80;99.90;;;;;;8354006;28;20013;-80
2022/10/20 00:29:41;;;;;;;24.92;14.02;;;12.70;99.90;;;;;;8347729;28;20025;-81
2022/10/20 00:33:42;;;;;;;22.23;12.60;;;12.60;99.90;;;;;;8350517;28;20059;-81
2022/10/20 00:37:42;;;;;;;18.67;11.95;;;12.60;99.90;;;;;;8339912;28;20026;-81
2022/10/20 00:41:43;;;;;;;28.83;13.93;;;12.70;99.90;;;;;;8353753;28;20021;-80
2022/10/20 00:45:50;;;;;;;24.10;13.90;;;12.60;99.90;;;;;;8338522;28;20048;-79
2022/10/20 00:49:51;;;;;;;21.60;13.60;;;12.60;99.90;;;;;;8342283;28;20022;-81
2022/10/20 00:53:58;;;;;;;24.02;14.48;;;12.50;99.90;;;;;;8365769;28;20075;-79
2022/10/20 00:58:01;;;;;;;19.25;12.00;;;12.50;99.90;;;;;;8366340;28;20112;-81
2022/10/20 01:02:02;;;;;;;21.05;13.18;;;12.60;99.90;;;;;;8347123;28;20504;-81
2022/10/20 01:06:03;;;;;;;20.92;14.55;;;12.70;99.90;;;;;;8355291;28;20029;-81
2022/10/20 01:10:05;;;;;;;21.35;13.40;;;12.50;99.90;;;;;;8329625;28;20075;-81
2022/10/20 01:14:12;;;;;;;22.30;13.32;;;12.50;99.90;;;;;;8345394;28;20021;-81
2022/10/20 01:18:29;;;;;;;19.73;13.45;;;12.60;99.90;;;;;;8337243;28;20685;-81
2022/10/20 01:23:12;;;;;;;20.90;13.00;;;12.60;99.90;;;;;;8329966;28;20417;-80
2022/10/20 01:27:43;;;;;;;24.88;14.05;;;12.50;99.90;;;;;;8320515;28;20041;-80
2022/10/20 01:31:49;;;;;;;;;;;12.50;99.90;;;;;;8341731;28;20111;-81
2022/10/20 01:35:58;;;;;;;23.45;13.40;;;12.30;99.90;;;;;;8339833;28;19905;-81
2022/10/20 01:40:18;;;;;;;26.23;15.27;;;12.50;99.90;;;;;;8336169;28;20029;-80
2022/10/20 01:44:22;;;;;;;25.53;15.20;;;12.50;99.90;;;;;;8338663;28;20033;-81
2022/10/20 01:48:27;;;;;;;24.92;14.40;;;12.50;99.90;;;;;;8344847;28;20257;-81
2022/10/20 01:52:29;;;;;;;23.73;13.65;;;12.40;99.90;;;;;;8342019;28;20017;-81
2022/10/20 01:56:41;;;;;;;21.05;13.65;;;12.50;99.90;;;;;;8341092;28;20021;-79
2022/10/20 02:00:44;;;;;;;26.15;13.90;;;12.60;99.90;;;;;;8348105;28;20075;-81
2022/10/20 02:04:47;;;;;;;26.15;14.55;;;12.60;99.90;;;;;;8332132;28;20767;-81
2022/10/20 02:09:02;;;;;;;23.73;14.80;;;12.70;99.90;;;;;;8347532;28;20432;-81
2022/10/20 02:13:06;;;;;;;22.58;14.07;;;12.40;99.90;;;;;;8344824;28;20029;-81
2022/10/20 02:17:12;;;;;;;24.80;15.13;;;12.60;99.90;;;;;;8334850;28;20032;-80
2022/10/20 02:21:13;;;;;;;25.55;14.23;;;12.70;99.90;;;;;;8333002;28;20021;-82
2022/10/20 02:25:13;;;;;;;25.25;14.55;;;12.60;99.90;;;;;;8361593;28;20428;-81
2022/10/20 02:29:18;;;;;;;26.80;14.38;;;12.60;99.90;;;;;;8352854;28;20033;-81
2022/10/20 02:33:20;;;;;;;25.48;14.40;;;12.60;99.90;;;;;;8350755;28;20124;-80
2022/10/20 02:37:20;;;;;;;25.95;15.57;;;12.70;99.90;;;;;;8345487;28;20060;-81
2022/10/20 02:41:21;;;;;;;23.95;15.10;;;12.70;99.90;;;;;;8352732;28;20067;-81
2022/10/20 02:45:22;;;;;;;26.13;15.65;;;12.70;99.90;;;;;;8355188;28;20029;-81
2022/10/20 02:49:24;;;;;;;23.85;15.00;;;12.70;99.90;;;;;;8336973;28;20027;-80
2022/10/20 02:53:24;;;;;;;32.95;14.93;;;12.70;99.90;;;;;;8383207;28;20566;-80
2022/10/20 02:57:25;;;;;;;27.67;15.20;;;12.70;99.90;;;;;;8321244;28;20064;-80
2022/10/20 03:01:26;;;;;;;28.20;14.50;;;12.70;99.90;;;;;;8335197;28;20039;-81
2022/10/20 03:05:28;;;;;;;26.80;15.82;;;12.70;99.90;;;;;;8331559;28;20037;-81
2022/10/20 03:09:28;;;;;;;32.90;16.67;;;12.60;99.90;;;;;;8347001;28;20067;-80
2022/10/20 03:13:29;;;;;;;29.42;15.18;;;12.60;99.90;;;;;;8336014;28;20017;-81
2022/10/20 03:17:30;;;;;;;24.38;15.65;;;12.70;99.90;;;;;;8362011;28;20056;-79
2022/10/20 03:21:30;;;;;;;31.45;18.02;;;12.70;99.90;;;;;;8319297;28;20021;-81
2022/10/20 03:25:31;;;;;;;32.75;18.02;;;12.60;99.90;;;;;;8343184;28;20027;-80
2022/10/20 03:29:32;;;;;;;38.03;18.15;;;12.40;99.90;;;;;;8350384;28;20048;-81
2022/10/20 03:33:32;;;;;;;34.47;18.30;;;12.30;99.90;;;;;;8342296;28;20021;-80
2022/10/20 03:37:33;;;;;;;35.42;19.15;;;12.20;99.90;;;;;;8343823;28;20028;-80
2022/10/20 03:41:33;;;;;;;36.65;19.65;;;12.30;99.90;;;;;;8350692;28;20049;-81
2022/10/20 03:45:34;;;;;;;34.75;19.80;;;12.20;99.90;;;;;;8343973;28;20021;-81
2022/10/20 03:49:35;;;;;;;44.42;19.50;;;12.10;99.90;;;;;;8329118;28;20017;-81
2022/10/20 03:53:35;;;;;;;42.13;21.27;;;12.20;99.90;;;;;;8358967;28;20025;-80
2022/10/20 03:57:36;;;;;;;43.08;19.80;;;12.20;99.90;;;;;;8332502;28;20719;-81
2022/10/20 04:01:36;;;;;;;41.83;20.40;;;12.20;99.90;;;;;;8346355;28;20028;-81
2022/10/20 04:05:37;;;;;;;41.20;20.50;;;12.30;99.90;;;;;;8333089;28;20036;-81
2022/10/20 04:09:38;;;;;;;46.00;22.27;;;12.20;99.90;;;;;;8361600;28;20557;-81
2022/10/20 04:13:38;;;;;;;36.85;20.42;;;12.20;99.90;;;;;;8323327;28;20022;-80
2022/10/20 04:17:39;;;;;;;41.17;21.30;;;12.20;99.90;;;;;;8328286;28;20168;-80
2022/10/20 04:21:40;;;;;;;47.13;21.58;;;12.20;99.90;;;;;;8321135;28;20021;-81
2022/10/20 04:25:47;;;;;;;45.20;21.30;;;12.10;99.90;;;;;;8305144;28;20448;-80
2022/10/20 04:29:48;;;;;;;45.95;21.55;;;12.20;99.90;;;;;;8360730;28;20032;-81
2022/10/20 04:33:48;;;;;;;43.47;22.90;;;12.30;99.90;;;;;;8331346;28;20075;-83
2022/10/20 04:37:49;;;;;;;51.90;23.85;;;12.20;99.90;;;;;;8340904;28;20115;-83
2022/10/20 04:41:50;;;;;;;48.33;23.77;;;12.00;99.90;;;;;;8334328;28;20055;-82
2022/10/20 04:45:52;;;;;;;50.90;23.88;;;12.20;99.90;;;;;;8353990;28;20071;-83
2022/10/20 04:49:53;;;;;;;45.53;23.35;;;12.00;99.90;;;;;;8342628;28;20038;-82
2022/10/20 04:53:53;;;;;;;50.85;24.65;;;12.20;99.90;;;;;;8314907;28;20080;-84
2022/10/20 04:57:54;;;;;;;47.85;23.83;;;12.00;99.90;;;;;;8350043;28;20382;-83
2022/10/20 05:01:55;;;;;;;50.35;24.73;;;12.10;99.90;;;;;;8337480;28;20163;-83
2022/10/20 05:06:26;;;;;;;55.22;27.13;;;12.10;99.90;;;;;;8359684;28;20037;-83
2022/10/20 05:10:27;;;;;;;56.10;25.70;;;12.00;99.90;;;;;;8326813;28;20041;-83
2022/10/20 05:14:27;;;;;;;56.60;26.58;;;12.10;99.90;;;;;;8294545;28;20036;-83
2022/10/20 05:18:28;;;;;;;52.80;25.55;;;12.10;99.90;;;;;;8363940;28;20059;-83
2022/10/20 05:22:29;;;;;;;48.65;24.58;;;12.20;99.90;;;;;;8346175;28;20021;-83
2022/10/20 05:26:34;;;;;;;56.38;26.75;;;12.20;99.90;;;;;;8329629;28;20052;-83
2022/10/20 05:30:36;;;;;;;55.30;26.02;;;12.20;99.90;;;;;;8363277;28;20027;-83
2022/10/20 05:34:37;;;;;;;58.78;26.92;;;12.20;99.90;;;;;;8344961;28;20028;-83
2022/10/20 05:38:39;;;;;;;65.20;28.20;;;12.40;99.90;;;;;;8358413;28;20017;-83
2022/10/20 05:42:40;;;;;;;67.28;28.95;;;12.10;99.90;;;;;;8347722;28;20091;-83
2022/10/20 05:46:41;;;;;;;55.97;27.98;;;12.00;99.90;;;;;;8332714;28;20044;-83
2022/10/20 05:50:41;;;;;;;66.50;29.05;;;12.00;99.90;;;;;;8333069;28;20389;-83
2022/10/20 05:54:42;;;;;;;58.92;27.95;;;12.00;99.90;;;;;;8332302;28;20075;-82
2022/10/20 05:58:43;;;;;;;54.97;27.52;;;12.20;99.90;;;;;;8326306;28;20075;-83
2022/10/20 06:02:44;;;;;;;58.15;27.45;;;12.30;99.90;;;;;;8367510;28;20024;-83
2022/10/20 06:06:44;;;;;;;52.65;26.33;;;12.20;99.90;;;;;;8323222;28;20037;-82
2022/10/20 06:10:45;;;;;;;62.10;27.85;;;12.20;99.90;;;;;;8329252;28;20304;-83
2022/10/20 06:14:45;;;;;;;60.35;28.35;;;12.20;99.90;;;;;;8322057;28;20071;-82
2022/10/20 06:18:47;;;;;;;53.17;27.00;;;12.20;99.90;;;;;;8337000;28;20036;-82
2022/10/20 06:22:47;;;;;;;60.67;27.17;;;12.30;99.90;;;;;;8338863;28;20016;-81
2022/10/20 06:26:48;;;;;;;56.92;26.48;;;12.20;99.90;;;;;;8340455;28;20037;-83
2022/10/20 06:30:48;;;;;;;51.75;26.08;;;12.30;99.90;;;;;;8333402;28;20032;-83
2022/10/20 06:34:49;;;;;;;55.72;27.75;;;12.30;99.90;;;;;;8324212;28;20033;-83
2022/10/20 06:38:57;;;;;;;50.28;25.80;;;12.10;99.90;;;;;;8314233;28;20052;-83
2022/10/20 06:42:58;;;;;;;47.42;25.45;;;12.20;99.90;;;;;;8331623;28;20051;-84
2022/10/20 06:46:58;;;;;;;44.15;23.58;;;12.40;99.90;;;;;;8320264;28;20025;-80
2022/10/20 06:51:01;;;;;;;44.45;23.35;;;12.50;99.90;;;;;;8328414;28;20024;-82
2022/10/20 06:55:02;;;;;;;43.13;23.35;;;12.70;99.90;;;;;;8321394;28;20032;-82
2022/10/20 06:59:03;;;;;;;44.60;23.83;;;12.80;99.90;;;;;;8327799;28;20533;-83
2022/10/20 07:03:04;;;;;;;45.13;23.13;;;12.80;99.90;;;;;;8321331;28;20039;-83
2022/10/20 07:07:04;;;;;;;42.58;23.63;;;12.80;99.90;;;;;;8311586;28;20401;-83
2022/10/20 07:11:07;;;;;;;40.45;22.55;;;12.90;99.90;;;;;;8341044;28;20052;-82
2022/10/20 07:15:08;;;;;;;37.83;20.83;;;13.10;99.90;;;;;;8340379;28;20036;-82
2022/10/20 07:19:09;;;;;;;38.00;20.77;;;13.40;99.90;;;;;;8316018;28;20497;-82
2022/10/20 07:23:10;;;;;;;36.95;21.42;;;13.30;99.90;;;;;;8315967;28;20029;-82
2022/10/20 07:27:10;;;;;;;38.22;21.20;;;13.30;99.90;;;;;;8324215;28;20028;-83
2022/10/20 07:31:17;;;;;;;35.97;19.90;;;13.30;99.90;;;;;;8349961;28;20077;-83
2022/10/20 07:35:18;;;;;;;32.65;18.23;;;13.50;99.90;;;;;;8344245;28;20061;-83
2022/10/20 07:39:19;;;;;;;28.50;17.77;;;13.60;99.90;;;;;;8333483;28;20186;-83
2022/10/20 07:43:19;;;;;;;29.80;17.48;;;13.80;99.90;;;;;;8343651;28;20030;-82
2022/10/20 07:47:20;;;;;;;30.08;17.90;;;14.20;99.90;;;;;;8321419;28;20022;-83
2022/10/20 07:51:20;;;;;;;29.88;16.92;;;14.20;99.90;;;;;;8316298;28;20037;-83
2022/10/20 07:55:21;;;;;;;32.83;18.38;;;14.20;99.90;;;;;;8332677;28;20032;-83
2022/10/20 07:59:21;;;;;;;31.05;17.15;;;14.20;99.90;;;;;;8358847;28;20034;-82
2022/10/20 08:03:22;;;;;;;31.73;17.33;;;14.00;99.90;;;;;;8321774;28;20121;-82
2022/10/20 08:07:22;;;;;;;28.85;16.77;;;14.30;99.90;;;;;;8306752;28;20033;-84
2022/10/20 08:11:23;;;;;;;27.13;16.15;;;14.80;99.90;;;;;;8338728;28;20031;-83
2022/10/20 08:15:24;;;;;;;26.65;16.40;;;15.00;99.90;;;;;;8343810;28;20048;-82
2022/10/20 08:19:25;;;;;;;23.73;13.48;;;15.30;99.90;;;;;;8340479;28;20124;-82
2022/10/20 08:23:26;;;;;;;23.48;14.20;;;15.40;99.90;;;;;;8366519;28;20055;-82
2022/10/20 08:27:26;;;;;;;22.50;12.77;;;15.40;99.90;;;;;;8334197;28;20354;-84
2022/10/20 08:31:27;;;;;;;24.63;14.75;;;15.80;99.90;;;;;;8302649;28;20139;-82
2022/10/20 08:35:27;;;;;;;20.48;14.07;;;15.70;99.90;;;;;;8314720;28;20088;-83
2022/10/20 08:39:28;;;;;;;21.70;14.00;;;15.40;99.90;;;;;;8329723;28;20128;-83
2022/10/20 08:43:30;;;;;;;24.45;14.57;;;15.20;99.90;;;;;;8318348;28;20092;-82
2022/10/20 08:47:35;;;;;;;25.02;15.43;;;15.20;99.90;;;;;;8314560;28;20037;-83
2022/10/20 08:51:37;;;;;;;23.48;13.48;;;15.20;99.90;;;;;;8326387;28;20031;-83
2022/10/20 08:55:38;;;;;;;25.50;14.32;;;15.60;99.90;;;;;;8368937;28;20021;-82
2022/10/20 08:59:38;;;;;;;18.63;13.25;;;16.00;99.90;;;;;;8346330;28;20027;-82
2022/10/20 09:03:39;;;;;;;19.80;12.50;;;16.40;99.90;;;;;;8346136;28;20619;-82
2022/10/20 09:07:40;;;;;;;23.13;13.10;;;16.80;99.90;;;;;;8364225;28;20044;-83
2022/10/20 09:11:41;;;;;;;21.00;12.55;;;16.90;99.90;;;;;;8339627;28;20511;-82
2022/10/20 09:15:42;;;;;;;17.25;12.00;;;16.70;99.90;;;;;;8333597;28;20083;-81
2022/10/20 09:19:54;;;;;;;21.55;12.55;;;16.60;99.90;;;;;;8337363;28;20633;-82
2022/10/20 09:24:00;;;;;;;21.15;12.05;;;16.90;99.90;;;;;;8343032;28;20616;-83
2022/10/20 09:28:01;;;;;;;18.52;12.15;;;17.20;99.90;;;;;;8345340;28;20017;-83
2022/10/20 09:32:01;;;;;;;18.48;11.85;;;16.90;99.90;;;;;;8366988;28;20025;-83
2022/10/20 09:36:15;;;;;;;19.27;11.38;;;17.40;99.90;;;;;;8333673;28;20040;-83
2022/10/20 09:40:16;;;;;;;16.95;10.50;;;17.80;99.90;;;;;;8316358;28;20123;-83
2022/10/20 09:44:24;;;;;;;18.27;10.60;;;18.50;99.90;;;;;;8339622;28;20096;-83
2022/10/20 09:48:31;;;;;;;17.90;11.20;;;18.30;99.90;;;;;;8361709;28;20029;-82
2022/10/20 09:52:46;;;;;;;18.00;9.73;;;18.20;99.90;;;;;;8364377;28;20075;-83
2022/10/20 09:56:48;;;;;;;15.18;9.35;;;18.50;99.90;;;;;;8348514;28;20025;-83
2022/10/20 10:00:59;;;;;;;12.20;8.10;;;19.50;99.90;;;;;;8331688;28;20029;-83
2022/10/20 10:05:18;;;;;;;15.45;10.02;;;20.10;99.90;;;;;;8339209;28;20063;-83
2022/10/20 10:09:33;;;;;;;12.32;10.00;;;20.30;99.90;;;;;;8332791;28;20031;-83
2022/10/20 10:13:44;;;;;;;15.32;11.00;;;20.50;99.90;;;;;;8328717;28;20055;-83
2022/10/20 10:17:45;;;;;;;20.55;11.85;;;20.00;99.90;;;;;;8325799;28;20037;-84
2022/10/20 10:21:51;;;;;;;16.38;11.40;;;19.90;99.90;;;;;;8339269;28;20066;-83
2022/10/20 10:25:53;;;;;;;18.27;12.13;;;19.40;99.90;;;;;;8338842;28;20064;-83
2022/10/20 10:30:14;;;;;;;14.98;11.13;;;19.40;99.90;;;;;;8357787;28;20038;-83
2022/10/20 10:34:15;;;;;;;17.63;11.07;;;19.60;99.90;;;;;;8317824;28;20025;-83
2022/10/20 10:38:16;;;;;;;14.13;10.70;;;19.30;99.90;;;;;;8325998;28;20529;-83
2022/10/20 10:42:50;;;;;;;21.30;11.82;;;18.80;99.90;;;;;;8322363;28;20025;-83
2022/10/20 10:47:16;;;;;;;19.92;10.93;;;18.50;99.90;;;;;;8322489;28;20029;-82
2022/10/20 10:51:21;;;;;;;18.30;11.23;;;18.70;99.90;;;;;;8330795;28;20021;-83
2022/10/20 10:55:37;;;;;;;20.42;11.77;;;19.20;99.90;;;;;;8346731;28;20053;-82
2022/10/20 10:59:42;;;;;;;18.23;12.20;;;19.40;99.90;;;;;;8344741;28;20028;-83
2022/10/20 11:03:50;;;;;;;16.27;11.35;;;19.40;99.90;;;;;;8344121;28;20028;-83
2022/10/20 11:07:53;;;;;;;18.88;12.30;;;19.10;99.90;;;;;;8337033;28;20029;-82
2022/10/20 11:12:30;;;;;;;18.70;11.50;;;19.00;99.90;;;;;;8340126;28;20171;-82
2022/10/20 11:17:02;;;;;;;16.55;10.70;;;18.80;99.90;;;;;;8313114;28;20040;-82
2022/10/20 11:21:21;;;;;;;17.30;11.07;;;19.00;99.90;;;;;;8342682;28;20041;-82
2022/10/20 11:25:51;;;;;;;17.85;12.10;;;18.90;99.90;;;;;;8323855;28;20481;-83
2022/10/20 11:30:03;;;;;;;19.95;12.57;;;18.70;99.90;;;;;;8336023;28;20037;-83
2022/10/20 11:34:20;;;;;;;20.35;13.70;;;17.90;99.90;;;;;;8349001;28;20238;-83
2022/10/20 11:38:51;;;;;;;25.88;15.45;;;17.20;99.90;;;;;;8365668;28;20061;-82
2022/10/20 11:43:22;;;;;;;28.52;16.45;;;16.70;99.90;;;;;;8326371;28;20396;-83
2022/10/20 11:47:35;;;;;;;26.95;17.20;;;16.50;99.90;;;;;;8338270;28;20392;-82
2022/10/20 11:51:53;;;;;;;24.52;15.85;;;16.80;99.90;;;;;;8330225;28;20624;-83
2022/10/20 11:56:26;;;;;;;31.23;17.30;;;17.30;99.90;;;;;;8358640;28;20378;-83
2022/10/20 12:00:51;;;;;;;25.98;17.05;;;17.70;99.90;;;;;;8348062;28;20031;-82
2022/10/20 12:05:10;;;;;;;27.75;16.58;;;18.00;99.90;;;;;;8342525;28;20029;-83
2022/10/20 12:09:10;;;;;;;25.20;16.55;;;18.30;99.90;;;;;;8349615;28;20481;-82
2022/10/20 12:13:14;;;;;;;27.48;15.85;;;18.70;99.90;;;;;;8331494;28;20040;-83
2022/10/20 12:17:34;;;;;;;29.48;16.27;;;18.40;99.90;;;;;;8340345;28;20036;-82
2022/10/20 12:22:06;;;;;;;27.33;16.73;;;18.40;99.90;;;;;;8326814;28;20021;-83
2022/10/20 12:26:26;;;;;;;;;;;18.80;99.90;;;;;;8339739;28;20029;-83
2022/10/20 12:30:40;;;;;;;29.98;16.08;;;19.40;99.90;;;;;;8336116;28;19920;-83
2022/10/20 12:34:41;;;;;;;30.00;17.33;;;19.70;99.90;;;;;;8347470;28;20017;-83
2022/10/20 12:38:45;;;;;;;26.95;16.13;;;19.10;99.90;;;;;;8335676;28;20022;-83
2022/10/20 12:42:48;;;;;;;26.30;16.25;;;19.00;99.90;;;;;;8339240;28;20103;-83
2022/10/20 12:47:04;;;;;;;29.92;15.57;;;18.80;99.90;;;;;;8318109;28;20288;-83
2022/10/20 12:51:19;;;;;;;25.13;16.50;;;18.40;99.90;;;;;;8347665;28;20017;-83
2022/10/20 12:55:35;;;;;;;25.35;16.98;;;17.80;99.90;;;;;;8336921;28;20043;-83
2022/10/20 12:59:37;;;;;;;30.90;16.65;;;17.50;99.90;;;;;;8342829;28;20049;-82
2022/10/20 13:03:45;;;;;;;27.02;16.58;;;17.60;99.90;;;;;;8341411;28;20432;-82
2022/10/20 13:07:48;;;;;;;28.40;16.70;;;17.40;99.90;;;;;;8351089;28;20021;-82
2022/10/20 13:11:57;;;;;;;27.40;15.63;;;17.40;99.90;;;;;;8340444;28;20537;-82
2022/10/20 13:15:59;;;;;;;25.17;15.55;;;17.50;99.90;;;;;;8376833;28;20020;-81
2022/10/20 13:20:14;;;;;;;28.58;16.33;;;17.30;99.90;;;;;;8334550;28;20065;-81
2022/10/20 13:24:28;;;;;;;26.90;16.58;;;17.70;99.90;;;;;;8358960;28;20021;-82
2022/10/20 13:28:30;;;;;;;29.30;16.63;;;17.70;99.90;;;;;;8347629;28;20025;-83
2022/10/20 13:32:40;;;;;;;25.83;15.43;;;18.10;99.90;;;;;;8330648;28;20511;-83
2022/10/20 13:37:11;;;;;;;23.70;15.95;;;18.20;99.90;;;;;;8334827;28;20026;-83
2022/10/20 13:41:35;;;;;;;23.88;15.95;;;18.00;99.90;;;;;;8348664;28;20071;-82
2022/10/20 13:46:10;;;;;;;28.80;17.10;;;18.00;99.90;;;;;;8350984;28;20089;-83
2022/10/20 13:50:21;;;;;;;26.63;16.85;;;17.90;99.90;;;;;;8316842;28;20115;-82
2022/10/20 13:54:25;;;;;;;26.90;16.98;;;18.20;99.90;;;;;;8344049;28;20035;-82
2022/10/20 13:58:26;;;;;;;24.48;16.02;;;17.90;99.90;;;;;;8306177;28;20049;-83
2022/10/20 14:02:33;;;;;;;25.85;16.90;;;17.60;99.90;;;;;;8337559;28;20035;-83
2022/10/20 14:06:36;;;;;;;27.17;16.25;;;17.70;99.90;;;;;;8321078;28;20024;-82
2022/10/20 14:10:58;;;;;;;28.10;16.92;;;17.60;99.90;;;;;;8340606;28;20029;-82
2022/10/20 14:14:59;;;;;;;26.63;16.83;;;17.60;99.90;;;;;;8355735;28;20025;-82
2022/10/20 14:19:00;;;;;;;28.23;16.40;;;17.80;99.90;;;;;;8330046;28;20043;-83
2022/10/20 14:23:02;;;;;;;25.75;16.80;;;18.00;99.90;;;;;;8335456;28;20095;-83
2022/10/20 14:27:04;;;;;;;23.48;16.25;;;17.90;99.90;;;;;;8348802;28;20039;-83
2022/10/20 14:31:06;;;;;;;29.83;17.38;;;17.70;99.90;;;;;;8354223;28;20053;-83
2022/10/20 14:35:27;;;;;;;23.67;15.55;;;17.60;99.90;;;;;;8308900;28;20125;-83
2022/10/20 14:39:35;;;;;;;28.95;17.08;;;17.40;99.90;;;;;;8335620;28;20048;-83
2022/10/20 14:43:40;;;;;;;25.23;16.17;;;16.80;99.90;;;;;;8338586;28;20031;-83
2022/10/20 14:47:41;;;;;;;22.55;14.43;;;16.50;99.90;;;;;;8354316;28;20027;-83
2022/10/20 14:52:02;;;;;;;21.20;14.02;;;16.60;99.90;;;;;;8325367;28;20025;-83
2022/10/20 14:56:20;;;;;;;;;;;16.50;99.90;;;;;;8327244;28;20021;-82
2022/10/20 15:00:28;;;;;;;18.60;12.18;;;16.50;99.90;;;;;;8329857;28;19905;-83
2022/10/20 15:04:29;;;;;;;19.50;11.57;;;16.40;99.90;;;;;;8314278;28;20670;-83
2022/10/20 15:08:29;;;;;;;19.67;11.25;;;16.40;99.90;;;;;;8312605;28;20013;-83
2022/10/20 15:12:32;;;;;;;24.13;12.27;;;16.30;99.90;;;;;;8310674;28;20171;-83
2022/10/20 15:17:02;;;;;;;20.00;12.30;;;16.40;99.90;;;;;;8316204;28;20021;-83
2022/10/20 15:21:03;;;;;;;15.40;11.15;;;16.10;99.90;;;;;;8326306;28;20065;-83
2022/10/20 15:25:03;;;;;;;17.38;11.95;;;15.90;99.90;;;;;;8340808;28;20029;-83
2022/10/20 15:29:06;;;;;;;17.83;11.60;;;15.60;99.90;;;;;;8368569;28;20043;-83
2022/10/20 15:33:08;;;;;;;18.48;12.05;;;15.90;99.90;;;;;;8342463;28;20022;-83
2022/10/20 15:37:09;;;;;;;18.00;11.65;;;16.00;99.90;;;;;;8326404;28;20026;-83
2022/10/20 15:41:15;;;;;;;20.90;12.90;;;15.60;99.90;;;;;;8335076;28;20237;-83
2022/10/20 15:45:19;;;;;;;21.65;13.82;;;15.30;99.90;;;;;;8333276;28;20053;-83
2022/10/20 15:49:20;;;;;;;21.58;13.63;;;15.50;99.90;;;;;;8320036;28;20401;-83
2022/10/20 15:53:20;;;;;;;20.27;13.68;;;15.50;99.90;;;;;;8318617;28;20029;-83
2022/10/20 15:57:21;;;;;;;22.13;14.10;;;15.50;99.90;;;;;;8322782;28;20116;-83
2022/10/20 16:01:22;;;;;;;23.25;15.75;;;15.70;99.90;;;;;;8320678;28;20103;-81
2022/10/20 16:05:23;;;;;;;26.10;16.38;;;15.30;99.90;;;;;;8341774;28;20393;-84
2022/10/20 16:09:24;;;;;;;26.75;15.43;;;15.50;99.90;;;;;;8341323;28;20053;-87
2022/10/20 16:13:24;;;;;;;30.77;18.65;;;15.20;99.90;;;;;;8316516;28;20120;-88
2022/10/20 16:17:25;;;;;;;37.15;18.58;;;15.00;99.90;;;;;;8305257;28;20022;-88
2022/10/20 16:21:25;;;;;;;28.20;16.98;;;14.90;99.90;;;;;;8316235;28;20033;-87
2022/10/20 16:25:26;;;;;;;31.52;18.42;;;14.80;99.90;;;;;;8338592;28;20090;-87
2022/10/20 16:29:26;;;;;;;32.45;18.60;;;14.80;99.90;;;;;;8338849;28;20029;-88
2022/10/20 16:33:27;;;;;;;28.90;18.65;;;14.40;99.90;;;;;;8337286;28;20055;-88
2022/10/20 16:37:29;;;;;;;37.75;20.90;;;14.40;99.90;;;;;;8332506;28;20028;-81
2022/10/20 16:41:30;;;;;;;36.42;20.73;;;14.20;99.90;;;;;;8325461;28;20045;-81
2022/10/20 16:45:30;;;;;;;40.10;20.95;;;14.20;99.90;;;;;;8305830;28;20056;-80
2022/10/20 16:49:31;;;;;;;34.83;20.02;;;14.30;99.90;;;;;;8315459;28;20488;-81
2022/10/20 16:53:32;;;;;;;37.70;20.50;;;14.40;99.90;;;;;;8314456;28;20027;-80
2022/10/20 16:57:37;;;;;;;38.83;23.30;;;14.20;99.90;;;;;;8349491;28;20040;-83
2022/10/20 17:01:37;;;;;;;45.03;23.30;;;14.10;99.90;;;;;;8315730;28;20021;-80
2022/10/20 17:05:38;;;;;;;45.20;24.42;;;13.90;99.90;;;;;;8330975;28;20025;-81
2022/10/20 17:09:38;;;;;;;52.80;25.77;;;13.80;99.90;;;;;;8327315;28;20078;-82
2022/10/20 17:13:39;;;;;;;43.72;21.83;;;13.60;99.90;;;;;;8337140;28;20028;-82
2022/10/20 17:17:40;;;;;;;40.33;22.90;;;13.70;99.90;;;;;;8329943;28;20407;-82
2022/10/20 17:21:41;;;;;;;43.28;23.38;;;13.60;99.90;;;;;;8349166;28;20032;-83
2022/10/20 17:25:41;;;;;;;44.40;23.52;;;13.70;99.90;;;;;;8328981;28;20163;-82
2022/10/20 17:29:42;;;;;;;47.90;25.05;;;13.80;99.90;;;;;;8332508;28;20034;-81
2022/10/20 17:33:43;;;;;;;45.17;23.75;;;13.70;99.90;;;;;;8345071;28;20543;-81
2022/10/20 17:37:44;;;;;;;41.08;20.52;;;13.70;99.90;;;;;;8325346;28;20505;-80
2022/10/20 17:41:45;;;;;;;45.70;23.27;;;13.60;99.90;;;;;;8310883;28;20017;-82
2022/10/20 17:45:56;;;;;;;42.97;22.45;;;13.70;99.90;;;;;;8315222;28;20027;-82
2022/10/20 17:49:57;;;;;;;48.88;25.33;;;13.60;99.90;;;;;;8303048;28;20030;-82
2022/10/20 17:53:57;;;;;;;42.25;22.85;;;13.50;99.90;;;;;;8327562;28;20434;-81
2022/10/20 17:57:58;;;;;;;41.30;21.52;;;13.50;99.90;;;;;;8332081;28;20120;-83
2022/10/20 18:01:58;;;;;;;45.35;23.90;;;13.60;99.90;;;;;;8353727;28;20388;-84
2022/10/20 18:06:15;;;;;;;37.58;21.02;;;13.30;99.90;;;;;;8364273;28;20025;-81
2022/10/20 18:10:16;;;;;;;34.58;21.02;;;13.40;99.90;;;;;;8314303;28;20839;-81
2022/10/20 18:14:17;;;;;;;34.20;20.60;;;13.50;99.90;;;;;;8327639;28;20021;-80
2022/10/20 18:18:17;;;;;;;39.20;22.27;;;13.30;99.90;;;;;;8347809;28;20025;-81
2022/10/20 18:22:18;;;;;;;36.47;20.83;;;13.20;99.90;;;;;;8330906;28;20565;-79
2022/10/20 18:26:19;;;;;;;39.10;21.00;;;13.10;99.90;;;;;;8328320;28;20040;-81
2022/10/20 18:30:19;;;;;;;32.78;20.08;;;13.20;99.90;;;;;;8343849;28;20030;-82
2022/10/20 18:34:20;;;;;;;37.00;20.52;;;13.30;99.90;;;;;;8316376;28;20021;-81
2022/10/20 18:38:21;;;;;;;35.53;20.80;;;13.20;99.90;;;;;;8337161;28;20075;-81
2022/10/20 18:42:21;;;;;;;36.60;20.42;;;13.10;99.90;;;;;;8350008;28;20095;-81
2022/10/20 18:46:22;;;;;;;37.03;20.60;;;13.20;99.90;;;;;;8319813;28;20116;-81
2022/10/20 18:50:23;;;;;;;41.55;21.10;;;13.00;99.90;;;;;;8333069;28;20040;-82
2022/10/20 18:54:23;;;;;;;37.17;20.58;;;13.00;99.90;;;;;;8323161;28;20026;-82
2022/10/20 18:58:25;;;;;;;34.10;20.52;;;13.10;99.90;;;;;;8308289;28;20500;-81
2022/10/20 19:02:27;;;;;;;38.70;20.13;;;13.30;99.90;;;;;;8333502;28;20021;-81
2022/10/20 19:06:33;;;;;;;36.85;19.35;;;13.50;99.90;;;;;;8338703;28;20033;-80
2022/10/20 19:10:34;;;;;;;36.42;20.65;;;13.40;99.90;;;;;;8356137;28;20076;-82
2022/10/20 19:14:34;;;;;;;36.10;20.50;;;13.50;99.90;;;;;;8343982;28;20025;-81
2022/10/20 19:18:39;;;;;;;36.38;21.15;;;13.70;99.90;;;;;;8349168;28;20036;-81
2022/10/20 19:22:39;;;;;;;44.35;23.08;;;13.70;99.90;;;;;;8361399;28;20083;-82
2022/10/20 19:26:43;;;;;;;39.25;22.25;;;13.60;99.90;;;;;;8373662;28;20021;-82
2022/10/20 19:30:44;;;;;;;41.22;23.33;;;13.50;99.90;;;;;;8348493;28;20057;-82
2022/10/20 19:34:44;;;;;;;45.90;24.00;;;13.50;99.90;;;;;;8365949;28;20079;-80
2022/10/20 19:38:45;;;;;;;41.75;24.10;;;13.50;99.90;;;;;;8366904;28;20025;-80
2022/10/20 19:42:46;;;;;;;50.03;24.45;;;13.40;99.90;;;;;;8357236;28;20036;-81
2022/10/20 19:46:50;;;;;;;49.00;25.08;;;13.30;99.90;;;;;;8325280;28;20497;-81
2022/10/20 19:50:51;;;;;;;47.78;24.67;;;13.20;99.90;;;;;;8345828;28;20025;-81
2022/10/20 19:54:51;;;;;;;57.05;28.65;;;13.00;99.90;;;;;;8349076;28;20079;-81
2022/10/20 19:58:52;;;;;;;52.13;26.48;;;13.00;99.90;;;;;;8340587;28;20032;-81
2022/10/20 20:02:52;;;;;;;50.83;25.15;;;12.90;99.90;;;;;;8360669;28;20241;-80
2022/10/20 20:06:53;;;;;;;49.17;24.83;;;12.80;99.90;;;;;;8345069;28;20081;-80
2022/10/20 20:10:55;;;;;;;50.53;23.30;;;12.90;99.90;;;;;;8356158;28;20021;-80
2022/10/20 20:14:56;;;;;;;59.47;28.00;;;12.80;99.90;;;;;;8373623;28;20009;-80
2022/10/20 20:18:57;;;;;;;60.22;27.98;;;12.80;99.90;;;;;;8342854;28;20028;-80
2022/10/20 20:22:57;;;;;;;55.42;27.75;;;12.90;99.90;;;;;;8341958;28;20029;-80
2022/10/20 20:26:58;;;;;;;56.63;26.35;;;12.80;99.90;;;;;;8349830;28;20555;-80
2022/10/20 20:31:04;;;;;;;54.50;26.42;;;12.90;99.90;;;;;;8341683;28;20025;-80
2022/10/20 20:35:05;;;;;;;53.08;25.52;;;13.00;99.90;;;;;;8367139;28;20037;-81
2022/10/20 20:39:07;;;;;;;55.53;26.08;;;12.90;99.90;;;;;;8348966;28;20107;-80
2022/10/20 20:43:08;;;;;;;48.20;26.65;;;12.90;99.90;;;;;;8340696;28;20021;-80